Time;durP1;ratioP1;P1;durP2;ratioP2;P2;SDS_P1;SDS_P2;PMS_P1;PMS_P2;Temp;Humidity;BMP_temperature;BMP_pressure;BME280_temperature;BME280_humidity;BME280_pressure;Samples;Min_cycle;Max_cycle;Signal;HPM_P1;HPM_P2
2023/04/18 00:01:33;;;;;;;;;65.75;46.50;;;;;11.47;67.01;101974.25;5017842;28;45570;-47
2023/04/18 00:04:01;;;;;;;;;73.25;52.50;;;;;11.44;66.28;101963.81;5135587;22;45304;-46
2023/04/18 00:06:28;;;;;;;;;68.75;53.00;;;;;11.40;67.18;101962.38;5036874;28;45354;-46
2023/04/18 00:08:54;;;;;;;;;67.75;50.25;;;;;11.37;67.64;101957.28;5038127;28;45551;-45
2023/04/18 00:11:20;;;;;;;;;69.50;52.50;;;;;11.27;67.19;101959.84;5037929;28;47033;-46
2023/04/18 00:13:46;;;;;;;;;64.25;48.25;;;;;11.29;67.56;101965.03;5037652;28;45492;-47
2023/04/18 00:16:12;;;;;;;;;71.75;50.75;;;;;11.22;66.68;101957.53;5038255;28;45428;-47
2023/04/18 00:18:38;;;;;;;;;71.25;53.00;;;;;11.19;67.27;101967.56;5037956;28;45390;-47
2023/04/18 00:21:05;;;;;;;;;70.25;51.00;;;;;11.14;68.02;101967.09;5037704;28;47186;-48
2023/04/18 00:23:33;;;;;;;;;71.25;51.75;;;;;11.09;68.04;101969.28;5038065;28;45365;-47
2023/04/18 00:25:58;;;;;;;;;78.25;56.00;;;;;11.05;67.71;101957.19;5037748;28;45391;-47
2023/04/18 00:28:24;;;;;;;;;64.50;50.25;;;;;11.01;67.97;101963.72;5037954;28;45308;-48
2023/04/18 00:30:49;;;;;;;;;71.00;52.50;;;;;10.96;68.40;101961.41;5037663;28;46298;-47
2023/04/18 00:33:15;;;;;;;;;76.25;56.00;;;;;10.82;68.42;101940.31;5037603;28;45326;-46
2023/04/18 00:35:41;;;;;;;;;74.75;54.50;;;;;10.89;68.50;101962.84;5037733;28;45474;-47
2023/04/18 00:38:06;;;;;;;;;71.00;53.50;;;;;10.87;68.55;101964.75;5037580;28;45414;-47
2023/04/18 00:40:32;;;;;;;;;76.25;55.00;;;;;10.82;68.80;101959.78;5037235;28;46197;-46
2023/04/18 00:42:57;;;;;;;;;71.25;53.25;;;;;10.78;69.07;101955.66;5037296;28;45506;-46
2023/04/18 00:45:22;;;;;;;;;82.50;54.75;;;;;10.78;68.92;101957.47;5037009;28;45858;-48
2023/04/18 00:47:48;;;;;;;;;72.00;54.50;;;;;10.43;68.86;101907.81;5037403;28;45409;-47
2023/04/18 00:50:13;;;;;;;;;73.25;53.25;;;;;10.72;68.76;101961.47;5036737;28;45432;-45
2023/04/18 00:52:39;;;;;;;;;74.50;55.75;;;;;10.69;69.36;101946.56;5036928;28;45406;-45
2023/04/18 00:55:06;;;;;;;;;72.75;55.00;;;;;10.59;69.28;101929.63;5037051;28;45323;-44
2023/04/18 00:57:32;;;;;;;;;77.50;58.25;;;;;10.68;69.09;101941.38;5037105;28;45216;-46
2023/04/18 00:59:59;;;;;;;;;70.25;51.00;;;;;10.67;69.55;101937.88;5036990;28;46556;-45
2023/04/18 01:02:27;;;;;;;;;77.75;53.75;;;;;10.72;69.34;101940.19;5036889;28;45435;-46
2023/04/18 01:04:52;;;;;;;;;74.00;53.75;;;;;10.77;69.00;101929.19;5036775;28;45441;-46
2023/04/18 01:07:18;;;;;;;;;77.50;57.00;;;;;10.80;68.85;101942.25;5037123;28;45339;-47
2023/04/18 01:09:43;;;;;;;;;74.00;57.00;;;;;10.82;68.91;101938.50;5036770;28;45485;-46
2023/04/18 01:12:09;;;;;;;;;72.75;53.50;;;;;10.83;68.73;101936.69;5036767;28;45438;-46
2023/04/18 01:14:34;;;;;;;;;74.75;53.25;;;;;10.83;68.81;101929.56;5036704;28;45287;-46
2023/04/18 01:17:00;;;;;;;;;71.00;55.75;;;;;10.83;68.87;101926.03;5036803;28;45376;-47
2023/04/18 01:19:25;;;;;;;;;71.25;54.00;;;;;10.77;68.83;101922.03;5036319;28;46271;-46
2023/04/18 01:21:52;;;;;;;;;69.00;53.75;;;;;10.82;68.82;101927.84;5036574;28;45504;-47
2023/04/18 01:24:17;;;;;;;;;80.00;56.75;;;;;10.79;69.00;101928.09;5036603;28;45316;-45
2023/04/18 01:26:46;;;;;;;;;81.25;57.50;;;;;10.77;69.24;101919.38;5036854;28;45276;-45
2023/04/18 01:29:12;;;;;;;;;78.25;57.00;;;;;10.66;68.73;101904.25;5036066;28;45629;-46
2023/04/18 01:31:39;;;;;;;;;75.25;54.00;;;;;10.69;68.84;101906.66;5036294;28;45297;-45
2023/04/18 01:34:04;;;;;;;;;74.25;53.25;;;;;10.70;69.37;101920.81;5036336;28;45311;-45
2023/04/18 01:36:31;;;;;;;;;72.50;53.75;;;;;10.65;68.98;101910.53;5036792;28;45358;-45
2023/04/18 01:38:57;;;;;;;;;73.25;53.50;;;;;10.62;69.49;101909.91;5036237;28;47065;-46
2023/04/18 01:41:23;;;;;;;;;79.50;56.50;;;;;10.60;69.55;101919.84;5036105;28;45335;-45
2023/04/18 01:43:48;;;;;;;;;73.75;57.75;;;;;10.58;69.52;101916.47;5036197;28;45509;-46
2023/04/18 01:46:14;;;;;;;;;77.25;56.00;;;;;10.55;69.53;101909.56;5036563;28;45434;-45
2023/04/18 01:48:39;;;;;;;;;77.25;57.50;;;;;10.53;69.91;101914.13;5036140;28;46213;-46
2023/04/18 01:51:04;;;;;;;;;75.25;54.00;;;;;10.51;69.74;101916.06;5036123;28;45481;-47
2023/04/18 01:53:31;;;;;;;;;76.75;58.50;;;;;10.47;69.67;101917.28;5036227;28;45477;-46
2023/04/18 01:55:57;;;;;;;;;78.75;58.00;;;;;10.44;69.96;101912.19;5036385;28;45431;-47
2023/04/18 01:58:24;;;;;;;;;77.50;56.25;;;;;10.40;69.92;101911.56;5035675;28;46457;-44
2023/04/18 02:00:53;;;;;;;;;82.75;60.25;;;;;10.38;69.93;101916.16;5035796;28;45398;-48
2023/04/18 02:03:19;;;;;;;;;83.25;58.25;;;;;10.37;70.44;101909.16;5036166;28;45339;-45
2023/04/18 02:05:46;;;;;;;;;75.50;56.75;;;;;10.34;70.78;101906.72;5036059;28;45449;-45
2023/04/18 02:08:12;;;;;;;;;80.00;58.50;;;;;10.29;70.31;101900.06;5035920;28;45985;-46
2023/04/18 02:10:37;;;;;;;;;74.00;56.50;;;;;10.28;70.58;101908.97;5035735;28;45260;-47
2023/04/18 02:13:03;;;;;;;;;81.75;59.00;;;;;10.30;70.71;101910.56;5035760;28;45527;-47
2023/04/18 02:15:28;;;;;;;;;79.75;60.00;;;;;10.30;70.85;101901.75;5036228;28;45331;-46
2023/04/18 02:17:54;;;;;;;;;84.75;61.00;;;;;10.27;71.05;101902.81;5035583;28;45382;-46
2023/04/18 02:20:19;;;;;;;;;79.00;57.25;;;;;10.28;70.91;101906.31;5035790;28;45442;-47
2023/04/18 02:22:46;;;;;;;;;79.00;59.00;;;;;10.23;70.04;101904.81;5035820;28;45458;-46
2023/04/18 02:25:11;;;;;;;;;82.50;58.00;;;;;10.24;70.93;101900.38;5036068;28;45506;-45
2023/04/18 02:27:37;;;;;;;;;80.00;59.25;;;;;10.22;71.40;101903.13;5035719;28;46022;-45
2023/04/18 02:30:02;;;;;;;;;84.75;58.75;;;;;10.20;71.09;101899.75;5036572;28;45417;-47
2023/04/18 02:32:27;;;;;;;;;77.75;56.00;;;;;10.19;70.95;101897.19;5039534;28;45371;-46
2023/04/18 02:34:53;;;;;;;;;83.75;59.00;;;;;10.17;71.25;101896.47;5038744;28;45498;-46
2023/04/18 02:37:18;;;;;;;;;74.00;56.25;;;;;10.14;70.92;101894.88;5039001;28;47102;-46
2023/04/18 02:39:43;;;;;;;;;77.75;58.50;;;;;10.12;70.58;101896.84;5038899;28;46599;-46
2023/04/18 02:42:09;;;;;;;;;75.25;55.25;;;;;10.10;70.82;101890.78;5039257;28;45309;-45
2023/04/18 02:44:34;;;;;;;;;84.50;58.75;;;;;10.08;70.73;101891.88;5039251;28;45303;-47
2023/04/18 02:47:00;;;;;;;;;78.25;59.25;;;;;10.04;70.77;101880.63;5039107;28;45389;-47
2023/04/18 02:49:25;;;;;;;;;81.25;58.25;;;;;10.06;71.05;101897.28;5038815;28;45311;-47
2023/04/18 02:51:54;;;;;;;;;78.75;56.25;;;;;9.97;71.00;101874.91;5039104;28;45403;-45
2023/04/18 02:54:19;;;;;;;;;85.00;62.75;;;;;10.02;71.06;101876.34;5039148;28;45498;-45
2023/04/18 02:56:45;;;;;;;;;73.50;56.75;;;;;10.00;70.93;101869.34;5038568;28;46979;-45
2023/04/18 02:59:10;;;;;;;;;82.25;60.00;;;;;10.01;70.67;101872.84;5038524;28;45411;-46
2023/04/18 03:01:36;;;;;;;;;79.75;59.00;;;;;10.15;70.19;101888.59;5038741;28;45430;-47
2023/04/18 03:04:01;;;;;;;;;78.50;57.50;;;;;10.16;70.25;101881.50;5038971;28;45709;-46
2023/04/18 03:06:27;;;;;;;;;79.00;56.50;;;;;10.17;70.24;101876.06;5038354;28;46246;-45
2023/04/18 03:08:53;;;;;;;;;79.50;62.00;;;;;10.17;70.16;101876.06;5038777;28;45366;-46
2023/04/18 03:11:19;;;;;;;;;82.50;59.75;;;;;10.18;69.90;101876.91;5038505;28;45341;-47
2023/04/18 03:13:44;;;;;;;;;84.25;59.75;;;;;10.16;69.66;101877.03;5038499;28;45387;-47
2023/04/18 03:16:10;;;;;;;;;91.25;60.50;;;;;10.13;69.85;101874.59;5038489;28;46895;-47
2023/04/18 03:18:35;;;;;;;;;84.75;60.75;;;;;10.12;69.66;101872.91;5038325;28;45453;-47
2023/04/18 03:21:01;;;;;;;;;89.75;62.25;;;;;10.11;69.69;101880.97;5038813;28;45394;-46
2023/04/18 03:23:26;;;;;;;;;75.25;58.00;;;;;10.13;69.80;101882.56;5038442;28;45371;-45
2023/04/18 03:25:51;;;;;;;;;87.50;60.75;;;;;10.13;70.55;101877.25;5037600;28;47014;-50
2023/04/18 03:28:17;;;;;;;;;86.50;60.75;;;;;10.13;69.82;101879.06;5038318;28;45383;-45
2023/04/18 03:30:42;;;;;;;;;84.00;62.00;;;;;10.11;70.09;101880.97;5037882;28;45509;-47
2023/04/18 03:33:08;;;;;;;;;86.00;63.00;;;;;10.14;69.68;101884.25;5020621;28;45467;-46
2023/04/18 03:35:33;;;;;;;;;79.25;60.75;;;;;10.14;69.91;101875.44;5038297;28;45367;-45
2023/04/18 03:37:58;;;;;;;;;86.25;60.50;;;;;10.13;69.55;101879.91;5038364;28;45467;-48
2023/04/18 03:40:24;;;;;;;;;79.25;56.00;;;;;10.14;69.53;101878.09;5038080;28;45584;-47
2023/04/18 03:42:49;;;;;;;;;87.50;58.75;;;;;10.00;69.33;101852.56;5038343;28;45481;-48
2023/04/18 03:45:15;;;;;;;;;74.75;56.75;;;;;10.13;69.44;101871.94;5036609;28;45333;-47
2023/04/18 03:47:40;;;;;;;;;75.75;55.50;;;;;10.13;69.50;101876.41;5038115;28;45347;-47
2023/04/18 03:50:06;;;;;;;;;79.00;58.50;;;;;10.15;69.38;101874.47;5038249;28;45514;-48
2023/04/18 03:52:32;;;;;;;;;83.00;58.75;;;;;10.10;69.49;101874.81;5020526;28;45293;-48
2023/04/18 03:54:57;;;;;;;;;81.00;57.25;;;;;10.09;69.63;101870.47;5038129;28;45603;-46
2023/04/18 03:57:22;;;;;;;;;81.25;57.25;;;;;10.04;69.69;101869.13;5037824;28;45330;-48
2023/04/18 03:59:48;;;;;;;;;75.75;56.75;;;;;10.02;69.98;101879.88;5037813;28;45443;-47
2023/04/18 04:02:13;;;;;;;;;81.75;60.00;;;;;9.94;69.97;101871.63;5038106;28;45320;-47
2023/04/18 04:04:38;;;;;;;;;82.50;60.50;;;;;9.92;70.42;101873.56;5037464;28;45362;-48
2023/04/18 04:07:04;;;;;;;;;83.50;61.25;;;;;9.88;70.39;101867.63;5037561;28;45346;-44
2023/04/18 04:09:29;;;;;;;;;74.25;55.25;;;;;9.83;71.07;101877.75;5038003;28;45228;-48
2023/04/18 04:11:55;;;;;;;;;81.75;57.00;;;;;9.82;71.00;101875.19;5038003;28;45387;-46
2023/04/18 04:14:21;;;;;;;;;76.00;55.25;;;;;9.79;70.55;101864.81;5037458;28;45534;-44
2023/04/18 04:16:47;;;;;;;;;88.25;62.25;;;;;9.75;71.42;101865.03;5037623;28;45449;-47
2023/04/18 04:19:13;;;;;;;;;75.50;57.25;;;;;9.37;71.01;101801.44;5037626;28;45525;-46
2023/04/18 04:21:39;;;;;;;;;81.00;60.25;;;;;9.62;71.39;101848.31;5037940;28;45359;-45
2023/04/18 04:24:05;;;;;;;;;82.00;60.75;;;;;9.70;71.03;101861.88;5037381;28;46388;-47
2023/04/18 04:26:31;;;;;;;;;78.75;58.75;;;;;9.69;71.36;101864.63;5037612;28;45237;-48
2023/04/18 04:28:56;;;;;;;;;77.75;55.50;;;;;9.64;71.85;101856.16;5037639;28;45426;-46
2023/04/18 04:31:22;;;;;;;;;76.25;56.75;;;;;9.65;71.82;101856.06;5037402;28;45469;-46
2023/04/18 04:33:47;;;;;;;;;78.00;58.25;;;;;9.63;71.24;101857.13;5037490;28;46152;-45
2023/04/18 04:36:18;;;;;;;;;81.50;60.50;;;;;9.62;71.86;101856.28;5036880;28;45165;-45
2023/04/18 04:38:43;;;;;;;;;78.75;57.50;;;;;9.59;72.14;101853.84;5037360;28;45337;-46
2023/04/18 04:41:09;;;;;;;;;80.50;57.50;;;;;9.58;72.46;101860.13;5036037;28;45348;-48
2023/04/18 04:43:34;;;;;;;;;81.75;58.75;;;;;9.59;72.44;101860.97;5036324;28;45366;-46
2023/04/18 04:46:02;;;;;;;;;78.00;58.25;;;;;9.56;72.00;101864.66;5037261;28;45244;-48
2023/04/18 04:48:28;;;;;;;;;81.00;58.00;;;;;9.53;72.10;101862.25;5037205;28;45856;-45
2023/04/18 04:50:55;;;;;;;;;78.25;56.25;;;;;9.53;72.81;101859.59;5037367;28;45378;-46
2023/04/18 04:53:22;;;;;;;;;89.25;62.25;;;;;9.41;72.48;101844.56;5036135;28;46163;-45
2023/04/18 04:55:47;;;;;;;;;74.50;57.00;;;;;9.49;72.38;101864.28;5037020;28;45407;-46
2023/04/18 04:58:13;;;;;;;;;85.25;60.25;;;;;9.42;73.35;101851.56;5037124;28;45343;-47
2023/04/18 05:00:39;;;;;;;;;70.25;51.25;;;;;9.48;72.92;101864.38;5037063;28;45339;-46
2023/04/18 05:03:05;;;;;;;;;80.00;58.50;;;;;9.46;72.92;101864.50;5033178;28;46442;-48
2023/04/18 05:05:31;;;;;;;;;79.75;62.00;;;;;9.46;73.13;101866.31;5029562;28;45407;-46
2023/04/18 05:07:56;;;;;;;;;85.25;62.75;;;;;9.42;73.40;101860.38;5021402;28;45462;-46
2023/04/18 05:10:22;;;;;;;;;91.00;61.25;;;;;9.45;73.50;101869.94;5036555;28;45303;-48
2023/04/18 05:12:47;;;;;;;;;81.00;62.25;;;;;9.33;73.65;101853.09;5036234;28;46460;-48
2023/04/18 05:15:14;;;;;;;;;86.25;60.50;;;;;9.45;73.14;101870.78;5036077;28;45690;-47
2023/04/18 05:17:40;;;;;;;;;83.25;61.50;;;;;9.42;73.75;101857.72;5036487;28;45233;-47
2023/04/18 05:20:06;;;;;;;;;77.50;56.25;;;;;9.44;73.54;101866.44;5036742;28;45673;-47
2023/04/18 05:22:31;;;;;;;;;84.00;63.25;;;;;9.44;73.97;101863.78;5036339;28;45442;-46
2023/04/18 05:24:56;;;;;;;;;84.75;60.25;;;;;9.46;74.18;101858.34;5036477;28;45385;-47
2023/04/18 05:27:22;;;;;;;;;85.25;62.25;;;;;9.45;73.81;101856.66;5036117;28;45460;-46
2023/04/18 05:29:49;;;;;;;;;85.25;58.75;;;;;9.48;73.87;101864.38;5036533;28;45431;-48
2023/04/18 05:32:16;;;;;;;;;86.25;59.75;;;;;9.49;74.14;101866.09;5035930;28;46954;-47
2023/04/18 05:34:41;;;;;;;;;72.50;55.00;;;;;9.52;73.97;101873.81;5036419;28;45339;-46
2023/04/18 05:37:07;;;;;;;;;86.00;60.50;;;;;9.54;73.80;101863.94;5036600;28;45348;-46
2023/04/18 05:39:32;;;;;;;;;79.00;58.25;;;;;9.51;73.29;101861.50;5036226;28;45332;-46
2023/04/18 05:41:57;;;;;;;;;80.75;60.00;;;;;9.57;73.75;101879.69;5035998;28;45407;-46
2023/04/18 05:44:23;;;;;;;;;83.50;60.25;;;;;9.61;73.82;101881.16;5036019;28;45677;-45
2023/04/18 05:46:50;;;;;;;;;82.75;61.75;;;;;9.66;73.54;101876.34;5036203;28;45631;-47
2023/04/18 05:49:17;;;;;;;;;82.00;60.00;;;;;9.68;73.48;101874.41;5034955;28;45849;-45
2023/04/18 05:51:43;;;;;;;;;77.25;59.00;;;;;9.67;73.17;101866.56;5035424;28;46892;-46
2023/04/18 05:54:08;;;;;;;;;82.00;59.00;;;;;9.74;73.42;101876.63;5035240;28;45386;-47
2023/04/18 05:56:33;;;;;;;;;82.00;59.75;;;;;9.81;72.95;101884.13;5034655;28;45505;-48
2023/04/18 05:58:59;;;;;;;;;85.50;62.25;;;;;9.83;73.11;101874.25;5034872;28;45443;-46
2023/04/18 06:01:24;;;;;;;;;83.25;61.50;;;;;9.88;72.52;101874.75;5035006;28;50548;-47
2023/04/18 06:03:49;;;;;;;;;81.75;59.00;;;;;9.93;72.78;101872.59;5034334;28;45381;-48
2023/04/18 06:06:15;;;;;;;;;82.25;60.00;;;;;9.98;72.39;101875.75;5035272;28;45365;-47
2023/04/18 06:08:40;;;;;;;;;83.00;61.75;;;;;10.02;72.44;101879.03;5035705;28;45427;-46
2023/04/18 06:11:06;;;;;;;;;80.50;59.00;;;;;10.07;72.26;101872.41;5017257;28;46007;-46
2023/04/18 06:13:31;;;;;;;;;80.75;61.50;;;;;10.14;72.28;101881.59;5035305;28;45386;-48
2023/04/18 06:15:57;;;;;;;;;83.50;61.00;;;;;10.21;72.05;101879.34;5035242;28;45316;-46
2023/04/18 06:18:22;;;;;;;;;85.50;62.00;;;;;10.28;71.39;101877.94;5035548;28;45356;-46
2023/04/18 06:20:48;;;;;;;;;88.00;61.00;;;;;10.39;71.40;101879.78;5035291;28;47021;-48
2023/04/18 06:23:15;;;;;;;;;82.00;58.75;;;;;10.51;71.19;101878.81;5035260;28;45354;-46
2023/04/18 06:25:41;;;;;;;;;82.00;59.25;;;;;10.60;70.45;101864.81;5035218;28;45422;-47
2023/04/18 06:28:07;;;;;;;;;83.00;60.00;;;;;10.89;69.95;101872.31;5035632;28;45378;-45
2023/04/18 06:30:33;;;;;;;;;77.00;56.25;;;;;11.11;69.16;101872.31;5035442;28;46066;-46
2023/04/18 06:32:58;;;;;;;;;81.25;58.75;;;;;11.22;68.57;101871.47;5022252;28;45442;-47
2023/04/18 06:35:24;;;;;;;;;75.00;56.75;;;;;11.28;68.52;101870.94;5034228;28;45405;-45
2023/04/18 06:37:49;;;;;;;;;83.50;58.25;;;;;11.35;68.30;101872.16;5036573;28;45789;-47
2023/04/18 06:40:15;;;;;;;;;80.25;58.00;;;;;11.41;67.76;101879.63;5034493;28;45412;-45
2023/04/18 06:42:41;;;;;;;;;75.75;58.25;;;;;11.48;67.42;101870.19;5036060;28;45342;-45
2023/04/18 06:45:09;;;;;;;;;87.75;62.75;;;;;11.59;67.09;101866.66;5035405;28;45484;-45
2023/04/18 06:47:34;;;;;;;;;77.50;61.00;;;;;11.64;67.17;101869.78;5023033;28;45415;-45
2023/04/18 06:50:00;;;;;;;;;77.00;57.50;;;;;11.72;66.88;101869.16;5035016;28;45497;-48
2023/04/18 06:52:25;;;;;;;;;74.75;55.00;;;;;11.86;67.02;101860.88;5034832;28;45415;-48
2023/04/18 06:54:51;;;;;;;;;83.75;58.25;;;;;12.08;65.83;101853.75;5035164;28;45485;-49
2023/04/18 06:57:17;;;;;;;;;79.25;60.00;;;;;12.57;65.04;101871.78;5035502;28;45485;-44
2023/04/18 06:59:42;;;;;;;;;78.50;55.50;;;;;12.84;64.41;101865.84;5016317;28;46525;-45
2023/04/18 07:02:07;;;;;;;;;75.50;54.50;;;;;13.03;63.78;101869.59;5035724;28;45360;-44
2023/04/18 07:04:33;;;;;;;;;73.50;53.75;;;;;13.21;63.65;101873.31;5035914;28;45283;-45
2023/04/18 07:07:00;;;;;;;;;73.50;54.00;;;;;13.40;61.83;101867.19;5036344;28;45417;-46
2023/04/18 07:09:25;;;;;;;;;70.00;54.75;;;;;13.67;61.44;101878.06;5034644;28;46615;-46
2023/04/18 07:11:51;;;;;;;;;72.25;53.75;;;;;13.90;61.21;101864.41;5035875;28;45236;-48
2023/04/18 07:14:18;;;;;;;;;76.25;57.75;;;;;14.28;59.96;101870.72;5036437;28;45398;-47
2023/04/18 07:16:44;;;;;;;;;80.00;57.25;;;;;14.38;59.34;101863.53;5038491;28;45440;-46
2023/04/18 07:19:10;;;;;;;;;78.25;54.75;;;;;14.86;58.95;101867.91;5039159;28;45966;-45
2023/04/18 07:21:36;;;;;;;;;72.50;54.50;;;;;14.95;57.23;101867.88;5039152;28;45296;-45
2023/04/18 07:24:01;;;;;;;;;74.25;56.25;;;;;14.90;57.47;101866.63;5039479;28;45550;-46
2023/04/18 07:26:28;;;;;;;;;73.00;54.50;;;;;15.09;57.39;101871.91;5039519;28;45449;-46
2023/04/18 07:28:53;;;;;;;;;79.25;58.75;;;;;15.70;56.14;101863.22;5039387;28;46173;-47
2023/04/18 07:31:18;;;;;;;;;73.25;55.00;;;;;16.04;54.62;101854.47;5038690;28;45474;-47
2023/04/18 07:33:44;;;;;;;;;75.75;57.50;;;;;16.47;53.31;101858.13;5039284;28;45271;-46
2023/04/18 07:36:09;;;;;;;;;72.50;53.75;;;;;17.02;52.70;101855.09;5039284;28;45402;-44
2023/04/18 07:38:35;;;;;;;;;72.25;55.25;;;;;17.60;51.17;101854.25;5039077;28;46189;-44
2023/04/18 07:41:02;;;;;;;;;69.50;53.00;;;;;17.88;50.72;101851.31;5038996;28;45330;-45
2023/04/18 07:43:27;;;;;;;;;68.50;50.75;;;;;17.99;49.49;101845.56;5039132;28;45423;-46
2023/04/18 07:45:53;;;;;;;;;66.75;52.75;;;;;17.62;49.49;101835.28;5039209;28;45459;-50
2023/04/18 07:48:23;;;;;;;;;68.00;52.50;;;;;17.24;50.70;101831.34;5038647;28;46049;-47
2023/04/18 07:50:49;;;;;;;;;69.50;52.25;;;;;17.73;50.02;101844.84;5038865;28;45489;-45
2023/04/18 07:53:14;;;;;;;;;72.50;53.75;;;;;18.64;47.84;101826.63;5038914;28;45390;-47
2023/04/18 07:55:40;;;;;;;;;62.75;49.50;;;;;19.13;46.79;101828.28;5039149;28;45495;-47
2023/04/18 07:58:05;;;;;;;;;67.50;52.25;;;;;19.36;45.76;101828.34;5038876;28;46054;-47
2023/04/18 08:00:31;;;;;;;;;65.50;51.25;;;;;19.21;47.18;101830.94;5038496;28;45409;-46
2023/04/18 08:02:57;;;;;;;;;67.75;52.00;;;;;18.82;46.51;101830.97;5037770;28;45333;-47
2023/04/18 08:05:22;;;;;;;;;72.75;52.75;;;;;18.47;47.04;101832.22;5038421;28;45583;-45
2023/04/18 08:07:48;;;;;;;;;73.00;54.50;;;;;18.52;47.98;101843.31;5037965;28;46243;-46
2023/04/18 08:10:13;;;;;;;;;72.00;55.75;;;;;18.74;46.75;101831.00;5038398;28;45339;-44
2023/04/18 08:12:39;;;;;;;;;67.25;51.25;;;;;18.81;46.00;101813.94;5038588;28;45415;-45
2023/04/18 08:15:06;;;;;;;;;70.50;49.00;;;;;19.11;46.27;101828.47;5038773;28;45423;-45
2023/04/18 08:17:32;;;;;;;;;67.25;50.25;;;;;19.43;44.72;101823.91;5020123;28;45740;-45
2023/04/18 08:19:57;;;;;;;;;69.00;52.00;;;;;19.74;44.55;101823.88;5038108;28;45410;-44
2023/04/18 08:22:22;;;;;;;;;65.25;49.75;;;;;20.09;43.78;101827.78;5038637;28;45467;-45
2023/04/18 08:24:48;;;;;;;;;62.33;47.00;;;;;20.51;45.51;101812.88;5038544;28;45425;-44
2023/04/18 08:27:13;;;;;;;;;63.33;48.33;;;;;21.02;42.19;101826.44;5037350;28;46138;-45
2023/04/18 08:29:38;;;;;;;;;65.00;49.00;;;;;21.46;40.42;101827.41;5038233;28;45441;-44
2023/04/18 08:32:07;;;;;;;;;61.67;46.00;;;;;21.97;39.70;101811.84;5038052;28;45422;-46
2023/04/18 08:34:35;;;;;;;;;65.00;49.67;;;;;23.03;37.74;101812.53;5038813;28;45366;-47
2023/04/18 08:37:00;;;;;;;;;61.00;49.00;;;;;24.38;36.46;101810.63;5038055;28;46169;-45
2023/04/18 08:39:26;;;;;;;;;60.00;48.00;;;;;25.96;34.15;101810.09;5037841;28;45451;-45
2023/04/18 08:41:59;;;;;;;;;58.33;45.00;;;;;27.52;31.24;101801.34;5038536;28;45450;-45
2023/04/18 08:44:28;;;;;;;;;61.33;47.00;;;;;28.68;30.21;101806.25;5020641;28;45560;-45
2023/04/18 08:46:55;;;;;;;;;60.67;45.00;;;;;29.73;28.38;101805.84;5037830;28;46197;-45
2023/04/18 08:49:23;;;;;;;;;61.33;47.67;;;;;30.52;27.22;101802.94;5038088;28;45366;-45
2023/04/18 08:51:50;;;;;;;;;59.00;48.67;;;;;31.32;25.59;101797.88;5038244;28;45337;-45
2023/04/18 08:54:17;;;;;;;;;63.67;47.00;;;;;31.87;24.35;101796.72;5038408;28;45371;-44
2023/04/18 08:56:43;;;;;;;;;58.67;46.00;;;;;32.43;24.39;101776.97;5037699;28;45355;-45
2023/04/18 08:59:10;;;;;;;;;58.33;45.00;;;;;32.90;23.35;101795.34;5037751;28;45466;-45
2023/04/18 09:02:00;;;;;;;;;56.67;47.00;;;;;33.51;23.70;101790.00;5037870;28;45543;-45
2023/04/18 09:04:36;;;;;;;;;60.67;46.00;;;;;34.21;23.13;101790.19;5038095;28;45268;-45
2023/04/18 09:07:09;;;;;;;;;54.00;44.67;;;;;34.74;21.31;101791.41;5037720;28;46994;-45
2023/04/18 09:09:43;;;;;;;;;55.50;43.00;;;;;35.40;21.24;101775.53;5037731;28;45251;-45
2023/04/18 09:12:10;;;;;;;;;56.00;44.50;;;;;36.00;19.85;101778.91;5038064;28;45461;-45
2023/04/18 09:14:36;;;;;;;;;55.00;43.25;;;;;36.55;19.91;101768.31;5037972;28;45371;-46
2023/04/18 09:17:03;;;;;;;;;55.50;42.00;;;;;37.16;19.11;101770.22;5037311;28;46176;-45
2023/04/18 09:19:29;;;;;;;;;56.75;43.50;;;;;37.69;19.00;101774.66;5037576;28;45483;-45
2023/04/18 09:21:58;;;;;;;;;53.00;43.00;;;;;37.88;17.88;101766.25;5037646;28;45366;-45
2023/04/18 09:24:25;;;;;;;;;54.75;43.25;;;;;38.29;18.09;101762.69;5019373;28;45256;-45
2023/04/18 09:26:52;;;;;;;;;57.25;44.25;;;;;38.29;17.69;101760.72;5017421;28;46959;-45
2023/04/18 09:29:21;;;;;;;;;50.60;42.20;;;;;38.54;17.20;101758.56;5016770;28;45356;-46
2023/04/18 09:32:00;;;;;;;;;51.00;41.60;;;;;38.64;18.42;101756.41;5017507;28;45451;-45
2023/04/18 09:34:26;;;;;;;;;52.75;41.50;;;;;39.16;16.46;101750.47;5017240;28;45524;-45
2023/04/18 09:37:12;;;;;;;;;53.80;40.60;;;;;38.66;17.07;101756.88;5017260;28;46358;-45
2023/04/18 09:39:40;;;;;;;;;49.80;41.20;;;;;38.95;17.24;101757.69;5016891;28;45352;-45
2023/04/18 09:42:06;;;;;;;;;50.80;40.80;;;;;38.32;17.17;101757.38;5017395;28;45348;-45
2023/04/18 09:44:32;;;;;;;;;48.00;39.80;;;;;38.77;17.81;101756.66;5016865;28;45269;-45
2023/04/18 09:46:57;;;;;;;;;46.50;38.25;;;;;39.35;17.32;101742.75;5017119;28;45265;-44
2023/04/18 09:49:23;;;;;;;;;44.50;37.25;;;;;39.79;17.45;101743.88;5017040;28;45222;-44
2023/04/18 09:51:52;;;;;;;;;51.75;42.00;;;;;39.91;16.07;101738.53;5017423;28;45442;-44
2023/04/18 09:54:19;;;;;;;;;50.20;38.60;;;;;40.17;15.47;101737.00;5017278;28;45396;-45
2023/04/18 09:56:46;;;;;;;;;47.00;37.00;;;;;40.18;15.30;101728.28;5016973;28;46829;-45
2023/04/18 09:59:15;;;;;;;;;45.00;37.00;;;;;39.90;15.68;101719.31;5016769;28;45379;-45
2023/04/18 10:01:46;;;;;;;;;47.40;37.40;;;;;40.04;15.43;101731.19;5016862;28;45368;-45
2023/04/18 10:04:13;;;;;;;;;50.60;39.00;;;;;39.46;16.19;101723.84;5017085;28;45493;-46
2023/04/18 10:06:40;;;;;;;;;46.20;38.00;;;;;39.56;16.10;101711.59;5016941;28;45266;-45
2023/04/18 10:09:07;;;;;;;;;47.20;38.40;;;;;37.64;16.96;101731.13;5016935;28;45343;-45
2023/04/18 10:11:33;;;;;;;;;45.40;38.20;;;;;36.97;17.21;101725.84;5015648;28;45455;-45
2023/04/18 10:14:03;;;;;;;;;47.50;39.25;;;;;37.65;17.37;101726.41;5017084;28;45487;-45
2023/04/18 10:16:29;;;;;;;;;48.00;38.40;;;;;38.48;16.71;101723.69;5016462;28;45375;-45
2023/04/18 10:18:55;;;;;;;;;48.75;37.75;;;;;38.50;17.45;101708.31;5016627;28;45348;-45
2023/04/18 10:21:21;;;;;;;;;48.00;37.00;;;;;38.46;15.69;101707.28;5016796;28;45279;-45
2023/04/18 10:23:47;;;;;;;;;49.25;37.50;;;;;38.73;16.04;101716.69;5017120;28;45242;-45
2023/04/18 10:26:13;;;;;;;;;46.00;37.80;;;;;39.17;18.03;101693.66;5015800;28;46374;-45
2023/04/18 10:28:52;;;;;;;;;47.75;36.50;;;;;39.56;17.05;101694.91;5016590;28;45327;-46
2023/04/18 10:31:17;;;;;;;;;43.20;35.40;;;;;39.97;16.72;101693.78;5016784;28;45297;-45
2023/04/18 10:33:48;;;;;;;;;49.25;37.50;;;;;39.49;15.34;101698.16;5016566;28;45356;-45
2023/04/18 10:36:16;;;;;;;;;40.00;34.40;;;;;39.61;16.29;101692.81;5016314;28;46983;-45
2023/04/18 10:38:54;;;;;;;;;37.60;32.80;;;;;39.61;14.83;101689.19;5016404;28;45413;-45
2023/04/18 10:41:27;;;;;;;;;39.60;35.00;;;;;40.03;15.73;101689.69;5016736;28;45332;-45
2023/04/18 10:44:05;;;;;;;;;35.60;32.00;;;;;40.30;16.44;101686.69;5016777;28;45314;-46
2023/04/18 10:46:30;;;;;;;;;39.40;31.20;;;;;38.84;15.52;101680.00;5016166;28;47081;-45
2023/04/18 10:49:15;;;;;;;;;37.25;31.50;;;;;37.23;16.74;101681.06;5016309;28;45266;-45
2023/04/18 10:51:41;;;;;;;;;37.20;31.40;;;;;37.82;16.92;101671.09;5018779;28;45186;-49
2023/04/18 10:54:09;;;;;;;;;38.75;32.50;;;;;38.03;15.83;101673.47;5020141;28;45539;-46
2023/04/18 10:56:35;;;;;;;;;37.40;30.60;;;;;37.52;16.02;101674.47;5019580;28;46219;-48
2023/04/18 10:59:02;;;;;;;;;40.00;33.50;;;;;37.92;16.86;101676.44;5019701;28;45808;-46
2023/04/18 11:01:29;;;;;;;;;35.80;31.40;;;;;37.90;15.95;101661.25;5019586;28;45266;-47
2023/04/18 11:03:55;;;;;;;;;36.80;30.40;;;;;38.26;15.88;101677.13;5019971;28;45387;-45
2023/04/18 11:06:21;;;;;;;;;43.50;30.75;;;;;37.26;17.34;101665.75;5019622;28;45315;-45
2023/04/18 11:08:48;;;;;;;;;41.80;33.60;;;;;37.40;15.44;101673.00;5019434;28;45409;-46